Time;durP1;ratioP1;P1;durP2;ratioP2;P2;SDS_P1;SDS_P2;PMS_P1;PMS_P2;Temp;Humidity;BMP_temperature;BMP_pressure;BME280_temperature;BME280_humidity;BME280_pressure;Samples;Min_cycle;Max_cycle;Signal;HPM_P1;HPM_P2
2023/05/07 00:01:35;;;;;;;73.07;10.93;;;;;;;;;;5054448;28;20386;-47
2023/05/07 00:04:03;;;;;;;83.05;12.02;;;;;;;;;;5062825;28;20047;-44
2023/05/07 00:06:30;;;;;;;101.03;12.23;;;;;;;;;;5059157;28;20040;-45
2023/05/07 00:08:58;;;;;;;91.03;12.38;;;;;;;;;;5059734;28;20032;-47
2023/05/07 00:11:25;;;;;;;86.38;12.05;;;;;;;;;;5053095;28;20083;-43
2023/05/07 00:13:52;;;;;;;99.65;12.88;;;;;;;;;;5062425;28;20173;-46
2023/05/07 00:16:19;;;;;;;101.05;12.88;;;;;;;;;;5060823;28;20056;-45
2023/05/07 00:18:46;;;;;;;98.68;12.25;;;;;;;;;;5061910;28;20574;-47
2023/05/07 00:21:13;;;;;;;86.75;12.82;;;;;;;;;;5058165;28;20024;-44
2023/05/07 00:23:40;;;;;;;76.75;11.75;;;;;;;;;;5061559;28;20071;-45
2023/05/07 00:26:07;;;;;;;82.35;11.77;;;;;;;;;;5062095;28;20482;-46
2023/05/07 00:28:34;;;;;;;86.35;11.48;;;;;;;;;;5068386;28;20074;-44
2023/05/07 00:31:01;;;;;;;65.38;12.32;;;;;;;;;;5064503;28;20024;-44
2023/05/07 00:33:28;;;;;;;79.22;12.82;;;;;;;;;;5058743;28;20054;-46
2023/05/07 00:35:55;;;;;;;70.00;11.45;;;;;;;;;;5067256;28;20025;-46
2023/05/07 00:38:22;;;;;;;85.78;12.07;;;;;;;;;;5057905;28;20029;-50
2023/05/07 00:40:51;;;;;;;72.05;12.20;;;;;;;;;;5057818;28;20024;-49
2023/05/07 00:43:18;;;;;;;77.32;12.02;;;;;;;;;;5057527;28;20029;-45
2023/05/07 00:45:45;;;;;;;80.95;11.80;;;;;;;;;;5059856;28;20132;-48
2023/05/07 00:48:12;;;;;;;66.72;13.15;;;;;;;;;;5060345;28;20040;-48
2023/05/07 00:50:39;;;;;;;60.78;11.63;;;;;;;;;;5058540;28;20112;-47
2023/05/07 00:53:07;;;;;;;64.95;11.68;;;;;;;;;;5063074;28;20029;-47
2023/05/07 00:55:34;;;;;;;81.35;12.25;;;;;;;;;;5056751;28;20033;-47
2023/05/07 00:58:01;;;;;;;73.10;12.75;;;;;;;;;;5059590;28;20029;-47
2023/05/07 01:00:28;;;;;;;69.97;11.10;;;;;;;;;;5049055;28;20456;-48
2023/05/07 01:02:55;;;;;;;80.55;11.80;;;;;;;;;;5070767;28;20067;-48
2023/05/07 01:05:23;;;;;;;57.50;10.95;;;;;;;;;;5070512;28;20040;-47
2023/05/07 01:07:51;;;;;;;70.82;11.15;;;;;;;;;;5070726;28;20032;-48
2023/05/07 01:10:18;;;;;;;62.45;11.20;;;;;;;;;;5070161;28;20063;-47
2023/05/07 01:12:46;;;;;;;66.03;11.85;;;;;;;;;;5070601;28;20037;-46
2023/05/07 01:15:13;;;;;;;66.28;11.52;;;;;;;;;;5070504;28;20028;-50
2023/05/07 01:17:41;;;;;;;60.78;10.57;;;;;;;;;;5070218;28;20029;-47
2023/05/07 01:20:12;;;;;;;56.25;10.38;;;;;;;;;;5069961;28;20031;-46
2023/05/07 01:22:39;;;;;;;53.20;9.90;;;;;;;;;;5071374;28;20052;-48
2023/05/07 01:25:10;;;;;;;60.22;10.02;;;;;;;;;;5086177;28;20037;-48
2023/05/07 01:27:37;;;;;;;46.17;10.27;;;;;;;;;;5082559;28;20501;-47
2023/05/07 01:30:05;;;;;;;59.00;10.93;;;;;;;;;;5089844;28;20028;-48
2023/05/07 01:32:32;;;;;;;46.63;9.75;;;;;;;;;;5089135;28;20035;-48
2023/05/07 01:34:59;;;;;;;61.22;10.52;;;;;;;;;;5090870;28;20082;-46
2023/05/07 01:37:26;;;;;;;40.78;9.70;;;;;;;;;;5090182;28;20048;-47
2023/05/07 01:39:54;;;;;;;49.50;10.13;;;;;;;;;;5090895;28;20028;-49
2023/05/07 01:42:21;;;;;;;59.60;10.93;;;;;;;;;;5090501;28;20373;-46
2023/05/07 01:44:48;;;;;;;55.42;9.73;;;;;;;;;;5072328;28;20047;-46
2023/05/07 01:47:15;;;;;;;54.90;9.43;;;;;;;;;;5070060;28;20031;-50
2023/05/07 01:49:42;;;;;;;48.95;10.27;;;;;;;;;;5088184;28;20020;-49
2023/05/07 01:52:11;;;;;;;52.05;9.77;;;;;;;;;;5089805;28;20407;-48
2023/05/07 01:54:38;;;;;;;40.35;9.18;;;;;;;;;;5090623;28;20523;-47
2023/05/07 01:57:06;;;;;;;41.28;8.32;;;;;;;;;;5090731;28;20460;-47
2023/05/07 01:59:33;;;;;;;44.13;9.43;;;;;;;;;;5090882;28;20481;-47
2023/05/07 02:02:00;;;;;;;36.03;8.73;;;;;;;;;;5089947;28;20138;-49
2023/05/07 02:04:27;;;;;;;49.78;10.05;;;;;;;;;;5090502;28;20028;-47
2023/05/07 02:06:55;;;;;;;46.83;9.25;;;;;;;;;;5089134;28;20035;-48
2023/05/07 02:09:23;;;;;;;51.53;9.27;;;;;;;;;;5089882;28;20039;-46
2023/05/07 02:11:50;;;;;;;45.60;7.88;;;;;;;;;;5089726;28;20067;-48
2023/05/07 02:14:17;;;;;;;48.10;8.32;;;;;;;;;;5089776;28;20028;-48
2023/05/07 02:16:44;;;;;;;49.30;8.43;;;;;;;;;;5089508;28;20035;-45
2023/05/07 02:19:11;;;;;;;41.65;8.93;;;;;;;;;;5090552;28;20045;-48
2023/05/07 02:21:39;;;;;;;27.77;7.32;;;;;;;;;;5087208;28;20031;-45
2023/05/07 02:24:06;;;;;;;29.42;7.72;;;;;;;;;;5059050;28;20076;-48
2023/05/07 02:26:34;;;;;;;34.22;7.53;;;;;;;;;;5057539;28;20040;-51
2023/05/07 02:29:00;;;;;;;27.17;6.63;;;;;;;;;;5058545;28;20029;-46
2023/05/07 02:31:27;;;;;;;29.48;7.20;;;;;;;;;;5057903;28;20052;-47
2023/05/07 02:33:54;;;;;;;24.40;7.57;;;;;;;;;;5058710;28;20036;-49
2023/05/07 02:36:21;;;;;;;34.55;7.68;;;;;;;;;;5056568;28;20474;-45
2023/05/07 02:38:48;;;;;;;23.77;7.05;;;;;;;;;;5058900;28;20040;-47
2023/05/07 02:41:15;;;;;;;27.30;7.03;;;;;;;;;;5062274;28;20025;-46
2023/05/07 02:43:42;;;;;;;28.65;7.03;;;;;;;;;;5058690;28;20032;-48
2023/05/07 02:46:10;;;;;;;26.25;6.32;;;;;;;;;;5058216;28;20044;-46
2023/05/07 02:48:37;;;;;;;24.75;6.72;;;;;;;;;;5058424;28;20078;-48
2023/05/07 02:51:05;;;;;;;21.88;6.32;;;;;;;;;;5061688;28;20043;-46
2023/05/07 02:53:32;;;;;;;22.52;6.15;;;;;;;;;;5059250;28;20035;-48
2023/05/07 02:56:00;;;;;;;24.45;5.95;;;;;;;;;;5058639;28;20104;-48
2023/05/07 02:58:27;;;;;;;23.73;6.38;;;;;;;;;;5060327;28;20085;-50
2023/05/07 03:00:54;;;;;;;36.85;7.32;;;;;;;;;;5060422;28;20025;-49
2023/05/07 03:03:21;;;;;;;23.98;6.40;;;;;;;;;;5061767;28;20033;-48
2023/05/07 03:05:48;;;;;;;21.73;5.65;;;;;;;;;;5063526;28;20131;-46
2023/05/07 03:08:15;;;;;;;22.20;5.43;;;;;;;;;;5063285;28;20418;-48
2023/05/07 03:10:42;;;;;;;16.15;5.47;;;;;;;;;;5068419;28;20383;-47
2023/05/07 03:13:09;;;;;;;17.40;5.82;;;;;;;;;;5062854;28;20039;-46
2023/05/07 03:15:36;;;;;;;23.08;5.80;;;;;;;;;;5073025;28;20100;-48
2023/05/07 03:18:03;;;;;;;24.27;6.05;;;;;;;;;;5069513;28;20036;-45
2023/05/07 03:20:30;;;;;;;21.42;5.53;;;;;;;;;;5070770;28;20107;-50
2023/05/07 03:22:57;;;;;;;22.58;5.70;;;;;;;;;;5056148;28;20052;-46
2023/05/07 03:25:24;;;;;;;18.88;5.13;;;;;;;;;;5053171;28;20032;-45
2023/05/07 03:27:51;;;;;;;19.65;5.10;;;;;;;;;;5053291;28;20374;-48
2023/05/07 03:30:18;;;;;;;16.83;5.22;;;;;;;;;;5053093;28;20434;-48
2023/05/07 03:32:45;;;;;;;16.83;5.18;;;;;;;;;;5052903;28;20025;-46
2023/05/07 03:35:12;;;;;;;14.30;4.32;;;;;;;;;;5055853;28;20028;-48
2023/05/07 03:37:39;;;;;;;16.15;4.97;;;;;;;;;;5073127;28;20017;-46
2023/05/07 03:40:07;;;;;;;15.65;4.97;;;;;;;;;;5071426;28;20032;-48
2023/05/07 03:42:34;;;;;;;21.48;5.10;;;;;;;;;;5072429;28;20074;-46
2023/05/07 03:45:01;;;;;;;19.60;5.30;;;;;;;;;;5072506;28;20051;-47
2023/05/07 03:47:28;;;;;;;12.77;4.60;;;;;;;;;;5072862;28;20025;-46
2023/05/07 03:49:55;;;;;;;18.45;4.35;;;;;;;;;;5072945;28;20020;-47
2023/05/07 03:52:25;;;;;;;20.92;5.22;;;;;;;;;;5072856;28;20036;-46
2023/05/07 03:54:53;;;;;;;13.75;4.05;;;;;;;;;;5054662;28;20033;-47
2023/05/07 03:57:20;;;;;;;15.43;4.43;;;;;;;;;;5052995;28;20068;-48
2023/05/07 03:59:47;;;;;;;13.68;3.97;;;;;;;;;;5053456;28;20025;-48
2023/05/07 04:02:14;;;;;;;11.27;3.65;;;;;;;;;;5053367;28;20028;-48
2023/05/07 04:04:41;;;;;;;14.95;4.20;;;;;;;;;;5053294;28;20039;-50
2023/05/07 04:07:08;;;;;;;14.27;4.40;;;;;;;;;;5053300;28;20108;-49
2023/05/07 04:09:35;;;;;;;16.00;4.22;;;;;;;;;;5035323;28;20020;-47
2023/05/07 04:12:02;;;;;;;13.15;3.92;;;;;;;;;;5052424;28;20055;-50
2023/05/07 04:14:31;;;;;;;11.55;3.88;;;;;;;;;;5052863;28;20025;-48
2023/05/07 04:16:59;;;;;;;12.32;4.03;;;;;;;;;;5053110;28;20033;-48
2023/05/07 04:19:26;;;;;;;13.32;4.28;;;;;;;;;;5053194;28;20025;-47
2023/05/07 04:21:53;;;;;;;10.13;3.70;;;;;;;;;;5053036;28;20092;-48
2023/05/07 04:24:20;;;;;;;13.60;4.53;;;;;;;;;;5052800;28;20132;-48
2023/05/07 04:26:47;;;;;;;12.90;3.70;;;;;;;;;;5053056;28;20029;-48
2023/05/07 04:29:14;;;;;;;11.82;3.85;;;;;;;;;;5053011;28;20021;-48
2023/05/07 04:31:44;;;;;;;12.85;3.75;;;;;;;;;;5052888;28;20081;-50
2023/05/07 04:34:14;;;;;;;11.68;3.80;;;;;;;;;;5052710;28;20032;-48
2023/05/07 04:36:41;;;;;;;10.65;3.97;;;;;;;;;;5052705;28;20017;-48
2023/05/07 04:39:08;;;;;;;11.70;3.63;;;;;;;;;;5051868;28;20280;-47
2023/05/07 04:41:37;;;;;;;12.23;3.80;;;;;;;;;;5051494;28;20387;-45
2023/05/07 04:44:04;;;;;;;8.90;3.15;;;;;;;;;;5051698;28;20028;-47
2023/05/07 04:46:31;;;;;;;9.85;3.55;;;;;;;;;;5051491;28;20044;-48
2023/05/07 04:48:58;;;;;;;13.77;3.60;;;;;;;;;;5051569;28;20522;-50
2023/05/07 04:51:25;;;;;;;9.23;3.40;;;;;;;;;;5051541;28;20043;-48
2023/05/07 04:53:52;;;;;;;7.28;2.92;;;;;;;;;;5051462;28;20033;-46
2023/05/07 04:56:20;;;;;;;13.55;3.85;;;;;;;;;;5051420;28;20029;-45
2023/05/07 04:58:47;;;;;;;12.65;3.13;;;;;;;;;;5051236;28;20039;-45
2023/05/07 05:01:14;;;;;;;10.90;2.70;;;;;;;;;;5051384;28;20021;-49
2023/05/07 05:03:41;;;;;;;8.20;3.47;;;;;;;;;;5051167;28;20479;-48
2023/05/07 05:06:08;;;;;;;8.18;2.83;;;;;;;;;;5051238;28;20032;-46
2023/05/07 05:08:34;;;;;;;10.80;3.42;;;;;;;;;;5051342;28;20108;-50
2023/05/07 05:11:02;;;;;;;9.98;3.25;;;;;;;;;;5051014;28;20029;-48
2023/05/07 05:13:30;;;;;;;11.60;3.40;;;;;;;;;;5033073;28;20091;-48
2023/05/07 05:15:57;;;;;;;7.57;2.88;;;;;;;;;;5050991;28;20029;-46
2023/05/07 05:18:24;;;;;;;7.95;3.28;;;;;;;;;;5051168;28;20024;-45
2023/05/07 05:20:52;;;;;;;7.53;3.22;;;;;;;;;;5050887;28;20033;-49
2023/05/07 05:23:19;;;;;;;9.77;3.17;;;;;;;;;;5050637;28;20052;-45
2023/05/07 05:25:46;;;;;;;9.68;3.05;;;;;;;;;;5050852;28;20033;-47
2023/05/07 05:28:13;;;;;;;7.57;2.65;;;;;;;;;;5050787;28;20043;-46
2023/05/07 05:30:41;;;;;;;8.27;2.83;;;;;;;;;;5050902;28;20036;-46
2023/05/07 05:33:07;;;;;;;7.72;2.75;;;;;;;;;;5096040;23;20009;-46
2023/05/07 05:35:35;;;;;;;12.57;2.75;;;;;;;;;;5069273;28;20115;-46
2023/05/07 05:38:02;;;;;;;7.53;3.00;;;;;;;;;;5092465;28;20056;-46
2023/05/07 05:40:29;;;;;;;8.43;2.88;;;;;;;;;;5092087;28;20052;-47
2023/05/07 05:42:56;;;;;;;8.05;2.80;;;;;;;;;;5085035;28;20493;-46
2023/05/07 05:45:23;;;;;;;7.50;2.55;;;;;;;;;;5079186;28;20024;-49
2023/05/07 05:47:50;;;;;;;6.55;2.38;;;;;;;;;;5074324;28;20028;-48
2023/05/07 05:50:17;;;;;;;7.40;2.60;;;;;;;;;;5070902;28;20163;-49
2023/05/07 05:52:44;;;;;;;9.13;2.83;;;;;;;;;;5070885;28;20090;-48
2023/05/07 05:55:11;;;;;;;10.00;2.50;;;;;;;;;;5070759;28;20021;-46
2023/05/07 05:57:39;;;;;;;8.57;2.97;;;;;;;;;;5070563;28;20027;-47
2023/05/07 06:00:06;;;;;;;6.18;2.22;;;;;;;;;;5070746;28;20032;-48
2023/05/07 06:02:33;;;;;;;8.25;2.55;;;;;;;;;;5069274;28;20047;-46
2023/05/07 06:05:00;;;;;;;6.97;2.60;;;;;;;;;;5070635;28;20394;-46
2023/05/07 06:07:27;;;;;;;8.63;2.55;;;;;;;;;;5070565;28;20017;-46
2023/05/07 06:09:55;;;;;;;7.75;2.90;;;;;;;;;;5070719;28;20028;-46
2023/05/07 06:12:22;;;;;;;8.25;2.45;;;;;;;;;;5070513;28;20025;-47
2023/05/07 06:14:49;;;;;;;6.80;3.15;;;;;;;;;;5070484;28;20024;-50
2023/05/07 06:17:16;;;;;;;8.38;2.67;;;;;;;;;;5070576;28;20132;-48
2023/05/07 06:19:43;;;;;;;6.40;2.55;;;;;;;;;;5070425;28;20399;-47
2023/05/07 06:22:10;;;;;;;6.45;2.50;;;;;;;;;;5070581;28;20024;-48
2023/05/07 06:24:37;;;;;;;6.63;2.53;;;;;;;;;;5070486;28;20831;-47
2023/05/07 06:27:04;;;;;;;7.57;2.33;;;;;;;;;;5070572;28;20028;-49
2023/05/07 06:29:32;;;;;;;5.53;2.40;;;;;;;;;;5070406;28;20027;-47
2023/05/07 06:32:07;;;;;;;7.88;2.22;;;;;;;;;;5070332;28;20129;-48
2023/05/07 06:34:34;;;;;;;4.28;1.90;;;;;;;;;;5070223;28;20444;-47
2023/05/07 06:37:01;;;;;;;4.38;2.17;;;;;;;;;;5073095;28;20099;-48
2023/05/07 06:39:28;;;;;;;4.47;2.30;;;;;;;;;;5074371;28;20114;-48
2023/05/07 06:41:55;;;;;;;3.75;2.00;;;;;;;;;;5074443;28;20378;-51
2023/05/07 06:44:22;;;;;;;8.35;2.47;;;;;;;;;;5073882;28;20445;-47
2023/05/07 06:46:49;;;;;;;5.00;1.95;;;;;;;;;;5074141;28;20039;-49
2023/05/07 06:49:16;;;;;;;5.32;2.05;;;;;;;;;;5074056;28;20025;-48
2023/05/07 06:51:43;;;;;;;4.93;1.73;;;;;;;;;;5073988;28;20378;-48
2023/05/07 06:54:10;;;;;;;3.78;1.88;;;;;;;;;;5074008;28;20092;-48
2023/05/07 06:56:37;;;;;;;6.53;2.10;;;;;;;;;;5073904;28;20063;-47
2023/05/07 06:59:04;;;;;;;5.43;2.10;;;;;;;;;;5073799;28;20028;-49
2023/05/07 07:01:31;;;;;;;3.67;1.85;;;;;;;;;;5073902;28;20020;-48
2023/05/07 07:03:58;;;;;;;4.68;1.85;;;;;;;;;;5073743;28;20021;-47
2023/05/07 07:06:25;;;;;;;7.10;2.10;;;;;;;;;;5073493;28;20041;-48
2023/05/07 07:08:52;;;;;;;5.65;1.85;;;;;;;;;;5073732;28;20035;-48
2023/05/07 07:11:20;;;;;;;7.97;2.00;;;;;;;;;;5073713;28;20024;-47
2023/05/07 07:13:47;;;;;;;5.57;2.13;;;;;;;;;;5073417;28;20052;-48
2023/05/07 07:16:14;;;;;;;4.70;1.80;;;;;;;;;;5073578;28;20037;-49
2023/05/07 07:18:41;;;;;;;5.05;1.88;;;;;;;;;;5073598;28;20390;-47
2023/05/07 07:21:08;;;;;;;4.82;2.00;;;;;;;;;;5073472;28;20017;-48
2023/05/07 07:23:35;;;;;;;6.22;1.95;;;;;;;;;;5073466;28;20089;-50
2023/05/07 07:26:02;;;;;;;5.35;1.67;;;;;;;;;;5073535;28;20025;-47
2023/05/07 07:28:29;;;;;;;4.72;1.65;;;;;;;;;;5073416;28;20427;-48
2023/05/07 07:30:56;;;;;;;5.38;1.92;;;;;;;;;;5073427;28;20021;-48
2023/05/07 07:33:23;;;;;;;4.03;1.70;;;;;;;;;;5072996;28;20045;-49
2023/05/07 07:35:50;;;;;;;4.72;1.83;;;;;;;;;;5073291;28;20027;-48
2023/05/07 07:38:16;;;;;;;5.57;1.60;;;;;;;;;;5073226;28;20548;-48
2023/05/07 07:40:44;;;;;;;4.88;1.65;;;;;;;;;;5073246;28;20485;-48
2023/05/07 07:43:10;;;;;;;5.50;2.05;;;;;;;;;;5072824;28;20108;-49
2023/05/07 07:45:37;;;;;;;4.10;1.70;;;;;;;;;;5072767;28;20036;-49
2023/05/07 07:48:04;;;;;;;3.65;1.52;;;;;;;;;;5072877;28;20036;-47
2023/05/07 07:50:34;;;;;;;8.20;1.80;;;;;;;;;;5072819;28;20162;-48
2023/05/07 07:53:01;;;;;;;4.70;1.60;;;;;;;;;;5072916;28;20052;-47
2023/05/07 07:55:28;;;;;;;4.15;1.73;;;;;;;;;;5072853;28;20447;-49
2023/05/07 07:57:55;;;;;;;6.25;1.67;;;;;;;;;;5072748;28;20021;-48
2023/05/07 08:00:22;;;;;;;3.85;1.50;;;;;;;;;;5072779;28;20028;-48
2023/05/07 08:02:49;;;;;;;4.63;1.92;;;;;;;;;;5072653;28;20024;-49
2023/05/07 08:05:16;;;;;;;3.85;1.70;;;;;;;;;;5072402;28;20127;-48
2023/05/07 08:07:43;;;;;;;4.95;1.70;;;;;;;;;;5072520;28;20064;-48
2023/05/07 08:10:10;;;;;;;4.05;1.60;;;;;;;;;;5072485;28;20482;-49
2023/05/07 08:12:37;;;;;;;4.22;1.75;;;;;;;;;;5072435;28;20099;-48
2023/05/07 08:15:05;;;;;;;4.68;1.70;;;;;;;;;;5072453;28;20089;-48
2023/05/07 08:17:31;;;;;;;3.88;1.50;;;;;;;;;;5072537;28;20490;-49
2023/05/07 08:19:58;;;;;;;2.95;1.27;;;;;;;;;;5072527;28;20082;-48
2023/05/07 08:22:25;;;;;;;4.47;1.40;;;;;;;;;;5072380;28;20027;-49
2023/05/07 08:24:53;;;;;;;6.03;1.52;;;;;;;;;;5072265;28;20500;-50
2023/05/07 08:27:20;;;;;;;3.15;1.35;;;;;;;;;;5072299;28;20060;-48
2023/05/07 08:29:47;;;;;;;3.47;1.23;;;;;;;;;;5072238;28;20095;-48
2023/05/07 08:32:15;;;;;;;6.78;1.75;;;;;;;;;;5071965;28;20116;-48
2023/05/07 08:34:42;;;;;;;3.22;1.30;;;;;;;;;;5071861;28;20041;-50
2023/05/07 08:37:09;;;;;;;3.58;1.50;;;;;;;;;;5072128;28;20475;-48
2023/05/07 08:39:36;;;;;;;3.97;1.27;;;;;;;;;;5071976;28;20024;-48
2023/05/07 08:42:04;;;;;;;2.75;1.35;;;;;;;;;;5072024;28;20029;-48
2023/05/07 08:44:35;;;;;;;4.35;1.42;;;;;;;;;;5071846;28;20107;-47
2023/05/07 08:47:02;;;;;;;4.18;1.20;;;;;;;;;;5071935;28;20024;-49
2023/05/07 08:49:29;;;;;;;3.97;1.40;;;;;;;;;;5071828;28;20024;-48
2023/05/07 08:51:56;;;;;;;3.03;1.10;;;;;;;;;;5053773;28;20367;-50
2023/05/07 08:54:24;;;;;;;3.78;1.40;;;;;;;;;;5071693;28;20035;-49
2023/05/07 08:56:51;;;;;;;5.75;1.30;;;;;;;;;;5071563;28;20016;-48
2023/05/07 08:59:18;;;;;;;3.50;1.40;;;;;;;;;;5071077;28;20115;-48
2023/05/07 09:01:45;;;;;;;4.47;1.50;;;;;;;;;;5071610;28;20039;-47
2023/05/07 09:04:12;;;;;;;4.03;1.48;;;;;;;;;;5071367;28;20078;-48
2023/05/07 09:06:41;;;;;;;3.63;1.15;;;;;;;;;;5071402;28;20037;-51
2023/05/07 09:09:08;;;;;;;3.75;1.63;;;;;;;;;;5071240;28;20035;-48
2023/05/07 09:11:35;;;;;;;2.22;1.10;;;;;;;;;;5071421;28;20056;-48
2023/05/07 09:14:02;;;;;;;4.03;1.30;;;;;;;;;;5071514;28;20530;-48
2023/05/07 09:16:32;;;;;;;5.85;1.27;;;;;;;;;;5071399;28;20028;-48
2023/05/07 09:19:02;;;;;;;5.50;1.48;;;;;;;;;;5071400;28;20051;-49
2023/05/07 09:21:30;;;;;;;4.90;1.40;;;;;;;;;;5071174;28;20107;-47
2023/05/07 09:23:57;;;;;;;4.63;1.10;;;;;;;;;;5070990;28;20113;-49
2023/05/07 09:26:24;;;;;;;3.45;1.50;;;;;;;;;;5071175;28;20153;-49
2023/05/07 09:28:52;;;;;;;4.22;1.00;;;;;;;;;;5071122;28;20490;-48
2023/05/07 09:31:19;;;;;;;3.63;1.08;;;;;;;;;;5071163;28;20600;-48
2023/05/07 09:33:46;;;;;;;2.55;1.17;;;;;;;;;;5070814;28;20046;-48
2023/05/07 09:36:13;;;;;;;3.20;1.40;;;;;;;;;;5071015;28;20039;-46
2023/05/07 09:38:40;;;;;;;3.95;1.33;;;;;;;;;;5071068;28;20029;-48
2023/05/07 09:41:09;;;;;;;2.38;1.10;;;;;;;;;;5071012;28;20101;-46
2023/05/07 09:43:36;;;;;;;3.95;1.30;;;;;;;;;;5070876;28;20036;-49
2023/05/07 09:46:12;;;;;;;2.42;1.33;;;;;;;;;;5070676;28;20403;-46
2023/05/07 09:48:40;;;;;;;3.08;1.20;;;;;;;;;;5071093;28;20394;-47
2023/05/07 09:51:16;;;;;;;4.05;1.20;;;;;;;;;;5070969;28;20032;-46
2023/05/07 09:53:45;;;;;;;2.65;1.10;;;;;;;;;;5070699;28;20051;-49
2023/05/07 09:56:14;;;;;;;4.88;1.27;;;;;;;;;;5070605;28;20102;-47
2023/05/07 09:58:42;;;;;;;4.55;1.40;;;;;;;;;;5070732;28;20100;-48
2023/05/07 10:01:11;;;;;;;3.75;1.40;;;;;;;;;;5070805;28;20020;-48
2023/05/07 10:03:40;;;;;;;6.50;1.38;;;;;;;;;;5070635;28;20057;-46
2023/05/07 10:06:09;;;;;;;4.65;1.45;;;;;;;;;;5070401;28;20472;-48
2023/05/07 10:08:36;;;;;;;2.35;1.20;;;;;;;;;;5070513;28;20466;-47
2023/05/07 10:11:05;;;;;;;2.47;1.10;;;;;;;;;;5071826;28;20028;-47
2023/05/07 10:13:37;;;;;;;3.78;1.60;;;;;;;;;;5074808;28;20476;-46
2023/05/07 10:16:07;;;;;;;3.17;1.40;;;;;;;;;;5074961;28;20039;-47
2023/05/07 10:18:34;;;;;;;4.25;1.40;;;;;;;;;;5074734;28;20032;-46
2023/05/07 10:21:24;;;;;;;3.45;1.30;;;;;;;;;;5074729;28;20038;-46
2023/05/07 10:23:52;;;;;;;3.42;1.15;;;;;;;;;;5074380;28;20481;-46
2023/05/07 10:26:21;;;;;;;3.60;1.50;;;;;;;;;;5074522;28;20037;-46
2023/05/07 10:28:51;;;;;;;2.38;1.20;;;;;;;;;;5074419;28;20103;-47
2023/05/07 10:31:32;;;;;;;3.40;1.42;;;;;;;;;;5074170;28;20032;-47
2023/05/07 10:33:59;;;;;;;2.38;1.10;;;;;;;;;;5074121;28;20054;-48
2023/05/07 10:36:27;;;;;;;3.95;1.30;;;;;;;;;;5074412;28;20043;-49
2023/05/07 10:38:54;;;;;;;3.00;1.20;;;;;;;;;;5074147;28;20822;-46
2023/05/07 10:41:21;;;;;;;3.25;1.17;;;;;;;;;;5074211;28;20028;-47
2023/05/07 10:43:48;;;;;;;3.10;1.38;;;;;;;;;;5074128;28;20031;-48
2023/05/07 10:46:22;;;;;;;2.20;1.02;;;;;;;;;;5074134;28;20063;-48
2023/05/07 10:49:06;;;;;;;3.85;1.20;;;;;;;;;;5074144;28;20132;-48
2023/05/07 10:51:33;;;;;;;2.17;1.10;;;;;;;;;;5073901;28;20509;-46
2023/05/07 10:54:12;;;;;;;2.70;1.30;;;;;;;;;;5073930;28;20035;-47
2023/05/07 10:56:43;;;;;;;2.10;1.30;;;;;;;;;;5073883;28;20055;-48
2023/05/07 10:59:27;;;;;;;3.28;1.45;;;;;;;;;;5073751;28;20163;-49
2023/05/07 11:01:56;;;;;;;2.85;1.20;;;;;;;;;;5073861;28;20043;-47
2023/05/07 11:04:27;;;;;;;2.53;1.20;;;;;;;;;;5073640;28;20033;-47
2023/05/07 11:07:09;;;;;;;6.32;1.20;;;;;;;;;;5073894;28;20036;-47
2023/05/07 11:09:55;;;;;;;6.20;1.50;;;;;;;;;;5073844;28;20024;-48
2023/05/07 11:12:38;;;;;;;4.05;1.20;;;;;;;;;;5073340;28;20028;-52
2023/05/07 11:15:16;;;;;;;3.38;1.40;;;;;;;;;;5073640;28;20485;-50
2023/05/07 11:17:56;;;;;;;2.90;1.30;;;;;;;;;;5073562;28;20072;-46
2023/05/07 11:20:43;;;;;;;1.67;1.00;;;;;;;;;;5073543;28;20538;-51
2023/05/07 11:23:30;;;;;;;5.88;1.30;;;;;;;;;;5059019;28;20127;-46
2023/05/07 11:26:07;;;;;;;3.33;1.35;;;;;;;;;;5073145;28;20036;-47
2023/05/07 11:28:41;;;;;;;3.40;1.42;;;;;;;;;;5073366;28;20020;-47
2023/05/07 11:31:08;;;;;;;4.85;1.35;;;;;;;;;;5073311;28;20624;-47
2023/05/07 11:33:35;;;;;;;2.50;1.10;;;;;;;;;;5073029;28;20095;-48
2023/05/07 11:36:06;;;;;;;4.55;1.20;;;;;;;;;;5073086;28;20032;-46
2023/05/07 11:38:36;;;;;;;2.03;1.10;;;;;;;;;;5073347;28;20028;-48
2023/05/07 11:41:07;;;;;;;5.07;1.48;;;;;;;;;;5073227;28;20470;-49
2023/05/07 11:43:35;;;;;;;5.22;1.30;;;;;;;;;;5073087;28;20036;-48
2023/05/07 11:46:07;;;;;;;3.92;1.25;;;;;;;;;;5072871;28;20052;-48
2023/05/07 11:48:34;;;;;;;3.27;1.30;;;;;;;;;;5073010;28;20386;-53
2023/05/07 11:51:05;;;;;;;2.20;1.10;;;;;;;;;;5055011;28;20559;-48
2023/05/07 11:53:41;;;;;;;2.35;1.10;;;;;;;;;;5072917;28;20513;-49
2023/05/07 11:56:09;;;;;;;3.10;1.25;;;;;;;;;;5072844;28;20111;-48
2023/05/07 11:58:36;;;;;;;2.78;1.13;;;;;;;;;;5072719;28;20024;-52
2023/05/07 12:01:03;;;;;;;4.13;1.20;;;;;;;;;;5072857;28;20044;-49
2023/05/07 12:03:30;;;;;;;5.13;1.50;;;;;;;;;;5072738;28;20104;-48
2023/05/07 12:05:57;;;;;;;3.35;1.17;;;;;;;;;;5072647;28;20035;-52
2023/05/07 12:08:25;;;;;;;3.97;1.42;;;;;;;;;;5072792;28;20098;-52
2023/05/07 12:10:52;;;;;;;3.70;1.30;;;;;;;;;;5054516;28;20028;-48
2023/05/07 12:13:19;;;;;;;2.40;1.00;;;;;;;;;;5072297;28;20103;-49
2023/05/07 12:15:46;;;;;;;3.38;1.27;;;;;;;;;;5072435;28;20025;-48
2023/05/07 12:18:14;;;;;;;1.77;1.20;;;;;;;;;;5072460;28;20031;-48
2023/05/07 12:20:41;;;;;;;4.45;1.20;;;;;;;;;;5072344;28;20102;-48
2023/05/07 12:23:08;;;;;;;3.28;1.30;;;;;;;;;;5072205;28;20479;-49
2023/05/07 12:25:47;;;;;;;2.33;1.08;;;;;;;;;;5072284;28;20568;-50
2023/05/07 12:28:18;;;;;;;3.88;1.20;;;;;;;;;;5072093;28;20427;-52
2023/05/07 12:30:45;;;;;;;4.13;1.58;;;;;;;;;;5053681;28;20028;-46
2023/05/07 12:33:13;;;;;;;2.92;1.13;;;;;;;;;;5060658;28;20494;-48
2023/05/07 12:35:43;;;;;;;5.20;1.27;;;;;;;;;;5062198;28;20033;-49
2023/05/07 12:38:12;;;;;;;2.42;1.27;;;;;;;;;;5060330;28;20021;-49
2023/05/07 12:40:40;;;;;;;3.00;1.10;;;;;;;;;;5071530;28;20032;-49
2023/05/07 12:43:07;;;;;;;5.75;1.10;;;;;;;;;;5071844;28;20082;-48
2023/05/07 12:45:43;;;;;;;3.35;1.20;;;;;;;;;;5070945;28;20461;-48
2023/05/07 12:48:13;;;;;;;3.08;1.20;;;;;;;;;;5071367;28;20021;-47
2023/05/07 12:50:40;;;;;;;4.88;1.48;;;;;;;;;;5064203;28;20033;-48
2023/05/07 12:53:11;;;;;;;3.72;1.27;;;;;;;;;;5057511;28;20024;-48
2023/05/07 12:55:42;;;;;;;4.43;1.23;;;;;;;;;;5034403;28;20033;-47
2023/05/07 12:58:20;;;;;;;4.57;1.35;;;;;;;;;;5034469;28;20122;-47
2023/05/07 13:00:49;;;;;;;2.78;1.15;;;;;;;;;;5052119;28;20452;-46
2023/05/07 13:03:27;;;;;;;2.65;1.13;;;;;;;;;;5070045;28;20036;-52
2023/05/07 13:05:55;;;;;;;3.45;1.20;;;;;;;;;;5072065;28;20597;-49
2023/05/07 13:08:26;;;;;;;5.75;1.42;;;;;;;;;;5072142;28;20773;-48
2023/05/07 13:11:06;;;;;;;6.72;1.75;;;;;;;;;;5072086;28;20029;-48
2023/05/07 13:13:34;;;;;;;11.48;1.50;;;;;;;;;;5071973;28;20024;-48
2023/05/07 13:16:01;;;;;;;4.75;1.58;;;;;;;;;;5071926;28;20111;-48
2023/05/07 13:18:30;;;;;;;10.02;1.75;;;;;;;;;;5062814;28;20502;-48
2023/05/07 13:20:57;;;;;;;5.15;1.63;;;;;;;;;;5061021;28;20408;-51
2023/05/07 13:23:24;;;;;;;5.07;1.40;;;;;;;;;;5062118;28;20042;-50
2023/05/07 13:25:55;;;;;;;6.60;1.88;;;;;;;;;;5060569;28;20505;-46
2023/05/07 13:28:23;;;;;;;9.32;1.92;;;;;;;;;;5060052;28;20033;-49
2023/05/07 13:30:51;;;;;;;14.77;1.75;;;;;;;;;;5044650;28;20070;-46
2023/05/07 13:33:19;;;;;;;4.32;1.65;;;;;;;;;;5066304;28;20049;-48
2023/05/07 13:35:46;;;;;;;7.32;1.58;;;;;;;;;;5070026;28;20434;-47
2023/05/07 13:38:13;;;;;;;3.05;1.20;;;;;;;;;;5036032;28;20029;-48
2023/05/07 13:40:40;;;;;;;3.58;1.35;;;;;;;;;;5070160;28;20039;-48
2023/05/07 13:43:07;;;;;;;5.47;1.33;;;;;;;;;;5069811;28;20486;-46
2023/05/07 13:45:34;;;;;;;6.90;1.55;;;;;;;;;;5069830;28;20036;-48
2023/05/07 13:48:01;;;;;;;8.30;1.95;;;;;;;;;;5055044;28;20071;-48
2023/05/07 13:50:29;;;;;;;4.20;1.23;;;;;;;;;;5051507;28;20040;-48
2023/05/07 13:52:56;;;;;;;6.13;1.75;;;;;;;;;;5060978;28;20032;-48
2023/05/07 13:55:25;;;;;;;9.65;1.73;;;;;;;;;;5059638;28;20429;-49
2023/05/07 13:57:58;;;;;;;12.65;1.58;;;;;;;;;;5060821;28;20036;-47
2023/05/07 14:00:26;;;;;;;4.18;1.45;;;;;;;;;;5061861;28;20826;-47
2023/05/07 14:02:53;;;;;;;11.63;1.77;;;;;;;;;;5060678;28;20463;-47
2023/05/07 14:05:20;;;;;;;8.18;1.45;;;;;;;;;;5059694;28;20151;-48
2023/05/07 14:07:49;;;;;;;9.63;1.60;;;;;;;;;;5061297;28;20024;-47
2023/05/07 14:10:16;;;;;;;11.20;1.50;;;;;;;;;;5059789;28;20062;-48
2023/05/07 14:12:42;;;;;;;8.88;1.80;;;;;;;;;;5057464;28;20025;-47
2023/05/07 14:15:10;;;;;;;10.48;2.05;;;;;;;;;;5057418;28;20549;-49
2023/05/07 14:17:37;;;;;;;8.43;1.65;;;;;;;;;;5063118;28;20478;-48
2023/05/07 14:20:06;;;;;;;12.77;1.60;;;;;;;;;;5062684;28;20553;-46
2023/05/07 14:22:33;;;;;;;7.03;1.33;;;;;;;;;;5061534;28;20071;-46
2023/05/07 14:25:00;;;;;;;9.88;1.50;;;;;;;;;;5052090;28;20049;-46
2023/05/07 14:27:26;;;;;;;6.80;1.60;;;;;;;;;;5064673;28;20412;-46
2023/05/07 14:29:54;;;;;;;7.70;1.90;;;;;;;;;;5064511;28;20021;-45
2023/05/07 14:32:21;;;;;;;9.07;1.75;;;;;;;;;;5063258;28;20121;-47
2023/05/07 14:34:48;;;;;;;7.15;1.80;;;;;;;;;;5065155;28;20055;-46
2023/05/07 14:37:15;;;;;;;10.60;1.73;;;;;;;;;;5061044;28;20108;-46
2023/05/07 14:39:42;;;;;;;8.43;1.83;;;;;;;;;;5066412;28;20045;-46
2023/05/07 14:42:09;;;;;;;10.82;1.73;;;;;;;;;;5059723;28;20039;-47